sensor_id;sensor_type;location;lat;lon;timestamp;P1;durP1;ratioP1;P2;durP2;ratioP2
14169;SDS011;63889;50.596;8.690;2024-03-07T00:01:48;42.05;;;18.05;;
14169;SDS011;63889;50.596;8.690;2024-03-07T00:04:13;49.55;;;18.80;;
14169;SDS011;63889;50.596;8.690;2024-03-07T00:06:39;38.67;;;17.63;;
14169;SDS011;63889;50.596;8.690;2024-03-07T00:09:06;44.17;;;18.40;;
14169;SDS011;63889;50.596;8.690;2024-03-07T00:11:32;39.42;;;17.08;;
14169;SDS011;63889;50.596;8.690;2024-03-07T00:13:58;40.42;;;16.85;;
14169;SDS011;63889;50.596;8.690;2024-03-07T00:16:24;47.08;;;17.00;;
14169;SDS011;63889;50.596;8.690;2024-03-07T00:18:50;40.80;;;17.88;;
14169;SDS011;63889;50.596;8.690;2024-03-07T00:21:15;41.78;;;16.83;;
14169;SDS011;63889;50.596;8.690;2024-03-07T00:23:41;43.85;;;17.20;;
14169;SDS011;63889;50.596;8.690;2024-03-07T00:26:07;43.53;;;17.92;;
14169;SDS011;63889;50.596;8.690;2024-03-07T00:28:32;45.45;;;17.92;;
14169;SDS011;63889;50.596;8.690;2024-03-07T00:31:04;48.97;;;18.73;;
14169;SDS011;63889;50.596;8.690;2024-03-07T00:33:32;41.45;;;16.45;;
14169;SDS011;63889;50.596;8.690;2024-03-07T00:35:57;36.40;;;16.17;;
14169;SDS011;63889;50.596;8.690;2024-03-07T00:38:23;41.25;;;17.55;;
14169;SDS011;63889;50.596;8.690;2024-03-07T00:40:49;41.92;;;17.48;;
14169;SDS011;63889;50.596;8.690;2024-03-07T00:43:14;41.75;;;16.15;;
14169;SDS011;63889;50.596;8.690;2024-03-07T00:45:40;42.83;;;16.40;;
14169;SDS011;63889;50.596;8.690;2024-03-07T00:48:05;33.10;;;14.18;;
14169;SDS011;63889;50.596;8.690;2024-03-07T00:50:31;38.95;;;14.93;;
14169;SDS011;63889;50.596;8.690;2024-03-07T00:52:57;34.97;;;15.18;;
14169;SDS011;63889;50.596;8.690;2024-03-07T00:55:22;39.33;;;14.35;;
14169;SDS011;63889;50.596;8.690;2024-03-07T00:57:48;37.70;;;14.60;;
14169;SDS011;63889;50.596;8.690;2024-03-07T01:00:14;33.42;;;14.27;;
14169;SDS011;63889;50.596;8.690;2024-03-07T01:02:42;33.95;;;14.65;;
14169;SDS011;63889;50.596;8.690;2024-03-07T01:05:12;34.95;;;13.98;;
14169;SDS011;63889;50.596;8.690;2024-03-07T01:07:42;26.63;;;12.70;;
14169;SDS011;63889;50.596;8.690;2024-03-07T01:10:09;26.17;;;13.15;;
14169;SDS011;63889;50.596;8.690;2024-03-07T01:12:35;32.15;;;12.77;;
14169;SDS011;63889;50.596;8.690;2024-03-07T01:15:00;32.40;;;13.32;;
14169;SDS011;63889;50.596;8.690;2024-03-07T01:17:29;30.67;;;13.52;;
14169;SDS011;63889;50.596;8.690;2024-03-07T01:19:54;33.72;;;14.40;;
14169;SDS011;63889;50.596;8.690;2024-03-07T01:22:21;28.90;;;11.75;;
14169;SDS011;63889;50.596;8.690;2024-03-07T01:24:47;28.45;;;12.00;;
14169;SDS011;63889;50.596;8.690;2024-03-07T01:27:14;26.17;;;12.18;;
14169;SDS011;63889;50.596;8.690;2024-03-07T01:29:39;26.63;;;11.68;;
14169;SDS011;63889;50.596;8.690;2024-03-07T01:32:06;24.50;;;11.00;;
14169;SDS011;63889;50.596;8.690;2024-03-07T01:34:32;25.60;;;11.70;;
14169;SDS011;63889;50.596;8.690;2024-03-07T01:36:57;31.58;;;13.43;;
14169;SDS011;63889;50.596;8.690;2024-03-07T01:39:23;31.80;;;11.90;;
14169;SDS011;63889;50.596;8.690;2024-03-07T01:41:49;32.33;;;11.98;;
14169;SDS011;63889;50.596;8.690;2024-03-07T01:44:14;27.15;;;10.77;;
14169;SDS011;63889;50.596;8.690;2024-03-07T01:46:40;25.05;;;11.48;;
14169;SDS011;63889;50.596;8.690;2024-03-07T01:49:08;25.80;;;11.43;;
14169;SDS011;63889;50.596;8.690;2024-03-07T01:51:35;28.33;;;11.90;;
14169;SDS011;63889;50.596;8.690;2024-03-07T01:54:02;29.05;;;12.20;;
14169;SDS011;63889;50.596;8.690;2024-03-07T01:56:28;23.20;;;11.00;;
14169;SDS011;63889;50.596;8.690;2024-03-07T01:58:54;28.85;;;11.70;;
14169;SDS011;63889;50.596;8.690;2024-03-07T02:01:22;23.58;;;11.05;;
14169;SDS011;63889;50.596;8.690;2024-03-07T02:03:48;27.88;;;12.40;;
14169;SDS011;63889;50.596;8.690;2024-03-07T02:06:14;31.35;;;12.75;;
14169;SDS011;63889;50.596;8.690;2024-03-07T02:08:40;26.75;;;11.50;;
14169;SDS011;63889;50.596;8.690;2024-03-07T02:11:05;27.35;;;12.10;;
14169;SDS011;63889;50.596;8.690;2024-03-07T02:13:31;25.60;;;11.27;;
14169;SDS011;63889;50.596;8.690;2024-03-07T02:15:57;26.95;;;11.70;;
14169;SDS011;63889;50.596;8.690;2024-03-07T02:18:23;26.10;;;11.07;;
14169;SDS011;63889;50.596;8.690;2024-03-07T02:20:49;25.95;;;11.38;;
14169;SDS011;63889;50.596;8.690;2024-03-07T02:23:15;25.30;;;11.25;;
14169;SDS011;63889;50.596;8.690;2024-03-07T02:25:41;26.25;;;11.00;;
14169;SDS011;63889;50.596;8.690;2024-03-07T02:28:06;28.95;;;11.55;;
14169;SDS011;63889;50.596;8.690;2024-03-07T02:30:32;25.67;;;11.18;;
14169;SDS011;63889;50.596;8.690;2024-03-07T02:32:58;29.45;;;12.82;;
14169;SDS011;63889;50.596;8.690;2024-03-07T02:35:31;25.63;;;11.68;;
14169;SDS011;63889;50.596;8.690;2024-03-07T02:38:05;29.65;;;11.82;;
14169;SDS011;63889;50.596;8.690;2024-03-07T02:40:31;31.42;;;12.20;;
14169;SDS011;63889;50.596;8.690;2024-03-07T02:42:57;25.42;;;11.65;;
14169;SDS011;63889;50.596;8.690;2024-03-07T02:45:23;23.90;;;10.85;;
14169;SDS011;63889;50.596;8.690;2024-03-07T02:47:49;27.10;;;12.05;;
14169;SDS011;63889;50.596;8.690;2024-03-07T02:50:14;27.75;;;11.75;;
14169;SDS011;63889;50.596;8.690;2024-03-07T02:52:40;24.63;;;11.35;;
14169;SDS011;63889;50.596;8.690;2024-03-07T02:55:06;28.63;;;12.60;;
14169;SDS011;63889;50.596;8.690;2024-03-07T02:57:35;30.80;;;13.60;;
14169;SDS011;63889;50.596;8.690;2024-03-07T03:00:01;27.80;;;12.18;;
14169;SDS011;63889;50.596;8.690;2024-03-07T03:02:28;27.95;;;11.80;;
14169;SDS011;63889;50.596;8.690;2024-03-07T03:04:53;27.40;;;11.65;;
14169;SDS011;63889;50.596;8.690;2024-03-07T03:07:19;22.60;;;11.05;;
14169;SDS011;63889;50.596;8.690;2024-03-07T03:09:45;30.15;;;11.20;;
14169;SDS011;63889;50.596;8.690;2024-03-07T03:12:11;24.80;;;10.68;;
14169;SDS011;63889;50.596;8.690;2024-03-07T03:14:37;29.08;;;12.43;;
14169;SDS011;63889;50.596;8.690;2024-03-07T03:17:02;27.13;;;12.88;;
14169;SDS011;63889;50.596;8.690;2024-03-07T03:19:28;26.85;;;11.70;;
14169;SDS011;63889;50.596;8.690;2024-03-07T03:21:54;28.48;;;11.63;;
14169;SDS011;63889;50.596;8.690;2024-03-07T03:24:20;34.95;;;12.77;;
14169;SDS011;63889;50.596;8.690;2024-03-07T03:26:46;25.92;;;12.23;;
14169;SDS011;63889;50.596;8.690;2024-03-07T03:29:12;31.20;;;13.15;;
14169;SDS011;63889;50.596;8.690;2024-03-07T03:31:39;28.55;;;12.27;;
14169;SDS011;63889;50.596;8.690;2024-03-07T03:34:04;23.55;;;11.07;;
14169;SDS011;63889;50.596;8.690;2024-03-07T03:36:30;30.60;;;11.18;;
14169;SDS011;63889;50.596;8.690;2024-03-07T03:38:55;26.98;;;12.13;;
14169;SDS011;63889;50.596;8.690;2024-03-07T03:41:21;24.77;;;12.45;;
14169;SDS011;63889;50.596;8.690;2024-03-07T03:43:48;25.52;;;11.15;;
14169;SDS011;63889;50.596;8.690;2024-03-07T03:46:13;27.05;;;12.15;;
14169;SDS011;63889;50.596;8.690;2024-03-07T03:48:39;32.13;;;12.07;;
14169;SDS011;63889;50.596;8.690;2024-03-07T03:51:08;24.58;;;12.13;;
14169;SDS011;63889;50.596;8.690;2024-03-07T03:53:36;28.48;;;11.77;;
14169;SDS011;63889;50.596;8.690;2024-03-07T03:56:02;29.65;;;12.80;;
14169;SDS011;63889;50.596;8.690;2024-03-07T03:58:29;25.25;;;12.55;;
14169;SDS011;63889;50.596;8.690;2024-03-07T04:00:59;30.13;;;12.00;;
14169;SDS011;63889;50.596;8.690;2024-03-07T04:03:24;27.67;;;12.75;;
14169;SDS011;63889;50.596;8.690;2024-03-07T04:05:50;26.63;;;11.75;;
14169;SDS011;63889;50.596;8.690;2024-03-07T04:08:16;30.27;;;11.93;;
14169;SDS011;63889;50.596;8.690;2024-03-07T04:10:41;25.95;;;12.00;;
14169;SDS011;63889;50.596;8.690;2024-03-07T04:15:35;27.67;;;12.07;;
14169;SDS011;63889;50.596;8.690;2024-03-07T04:18:01;28.23;;;11.73;;
14169;SDS011;63889;50.596;8.690;2024-03-07T04:20:26;25.83;;;11.40;;
14169;SDS011;63889;50.596;8.690;2024-03-07T04:22:52;22.70;;;11.77;;
14169;SDS011;63889;50.596;8.690;2024-03-07T04:25:18;28.08;;;11.68;;
14169;SDS011;63889;50.596;8.690;2024-03-07T04:27:43;23.08;;;10.57;;
14169;SDS011;63889;50.596;8.690;2024-03-07T04:30:09;26.98;;;11.95;;
14169;SDS011;63889;50.596;8.690;2024-03-07T04:32:36;28.20;;;12.20;;
14169;SDS011;63889;50.596;8.690;2024-03-07T04:35:02;29.45;;;11.70;;
14169;SDS011;63889;50.596;8.690;2024-03-07T04:37:35;26.80;;;12.35;;
14169;SDS011;63889;50.596;8.690;2024-03-07T04:40:04;31.80;;;11.82;;
14169;SDS011;63889;50.596;8.690;2024-03-07T04:42:40;28.80;;;11.18;;
14169;SDS011;63889;50.596;8.690;2024-03-07T04:45:07;27.55;;;10.68;;
14169;SDS011;63889;50.596;8.690;2024-03-07T04:47:35;24.92;;;12.00;;
14169;SDS011;63889;50.596;8.690;2024-03-07T04:50:01;25.80;;;11.30;;
14169;SDS011;63889;50.596;8.690;2024-03-07T04:52:27;24.67;;;11.18;;
14169;SDS011;63889;50.596;8.690;2024-03-07T04:54:53;24.90;;;11.00;;
14169;SDS011;63889;50.596;8.690;2024-03-07T04:57:18;22.92;;;11.25;;
14169;SDS011;63889;50.596;8.690;2024-03-07T04:59:44;29.58;;;12.13;;
14169;SDS011;63889;50.596;8.690;2024-03-07T05:02:09;32.22;;;12.55;;
14169;SDS011;63889;50.596;8.690;2024-03-07T05:04:35;30.90;;;12.35;;
14169;SDS011;63889;50.596;8.690;2024-03-07T05:07:00;34.30;;;11.65;;
14169;SDS011;63889;50.596;8.690;2024-03-07T05:09:27;27.83;;;11.63;;
14169;SDS011;63889;50.596;8.690;2024-03-07T05:11:54;27.33;;;11.77;;
14169;SDS011;63889;50.596;8.690;2024-03-07T05:14:20;30.30;;;10.93;;
14169;SDS011;63889;50.596;8.690;2024-03-07T05:16:46;28.40;;;11.10;;
14169;SDS011;63889;50.596;8.690;2024-03-07T05:19:29;26.85;;;11.02;;
14169;SDS011;63889;50.596;8.690;2024-03-07T05:21:58;24.85;;;11.25;;
14169;SDS011;63889;50.596;8.690;2024-03-07T05:24:24;25.02;;;11.10;;
14169;SDS011;63889;50.596;8.690;2024-03-07T05:26:50;26.30;;;11.27;;
14169;SDS011;63889;50.596;8.690;2024-03-07T05:29:18;26.92;;;12.18;;
14169;SDS011;63889;50.596;8.690;2024-03-07T05:31:43;28.58;;;11.50;;
14169;SDS011;63889;50.596;8.690;2024-03-07T05:34:12;24.80;;;11.00;;
14169;SDS011;63889;50.596;8.690;2024-03-07T05:36:39;30.55;;;12.63;;
14169;SDS011;63889;50.596;8.690;2024-03-07T05:39:10;27.17;;;11.32;;
14169;SDS011;63889;50.596;8.690;2024-03-07T05:41:39;32.35;;;12.43;;
14169;SDS011;63889;50.596;8.690;2024-03-07T05:44:11;31.98;;;12.00;;
14169;SDS011;63889;50.596;8.690;2024-03-07T05:46:41;27.33;;;11.82;;
14169;SDS011;63889;50.596;8.690;2024-03-07T05:49:12;26.23;;;11.90;;
14169;SDS011;63889;50.596;8.690;2024-03-07T05:51:38;26.48;;;12.00;;
14169;SDS011;63889;50.596;8.690;2024-03-07T05:54:03;26.30;;;12.13;;
14169;SDS011;63889;50.596;8.690;2024-03-07T05:56:32;26.30;;;11.60;;
14169;SDS011;63889;50.596;8.690;2024-03-07T05:59:01;31.73;;;12.15;;
14169;SDS011;63889;50.596;8.690;2024-03-07T06:01:29;31.42;;;12.15;;
14169;SDS011;63889;50.596;8.690;2024-03-07T06:03:59;28.95;;;12.30;;
14169;SDS011;63889;50.596;8.690;2024-03-07T06:06:30;28.25;;;12.07;;
14169;SDS011;63889;50.596;8.690;2024-03-07T06:08:58;30.02;;;12.73;;
14169;SDS011;63889;50.596;8.690;2024-03-07T06:11:24;28.70;;;12.00;;
14169;SDS011;63889;50.596;8.690;2024-03-07T06:13:50;27.85;;;12.63;;
14169;SDS011;63889;50.596;8.690;2024-03-07T06:16:16;26.75;;;11.70;;
14169;SDS011;63889;50.596;8.690;2024-03-07T06:18:43;24.33;;;11.32;;
14169;SDS011;63889;50.596;8.690;2024-03-07T06:21:10;30.23;;;11.57;;
14169;SDS011;63889;50.596;8.690;2024-03-07T06:23:35;24.95;;;11.60;;
14169;SDS011;63889;50.596;8.690;2024-03-07T06:26:01;24.17;;;11.90;;
14169;SDS011;63889;50.596;8.690;2024-03-07T06:28:31;27.55;;;11.77;;
14169;SDS011;63889;50.596;8.690;2024-03-07T06:30:57;27.80;;;11.65;;
14169;SDS011;63889;50.596;8.690;2024-03-07T06:33:22;31.38;;;13.43;;
14169;SDS011;63889;50.596;8.690;2024-03-07T06:35:48;29.65;;;11.90;;
14169;SDS011;63889;50.596;8.690;2024-03-07T06:38:13;25.73;;;11.63;;
14169;SDS011;63889;50.596;8.690;2024-03-07T06:40:40;27.60;;;11.73;;
14169;SDS011;63889;50.596;8.690;2024-03-07T06:43:07;28.92;;;12.70;;
14169;SDS011;63889;50.596;8.690;2024-03-07T06:45:35;28.52;;;11.85;;
14169;SDS011;63889;50.596;8.690;2024-03-07T06:48:02;30.30;;;11.77;;
14169;SDS011;63889;50.596;8.690;2024-03-07T06:50:29;25.38;;;11.45;;
14169;SDS011;63889;50.596;8.690;2024-03-07T06:52:55;27.73;;;12.27;;
14169;SDS011;63889;50.596;8.690;2024-03-07T06:55:21;27.67;;;11.50;;
14169;SDS011;63889;50.596;8.690;2024-03-07T06:57:47;24.30;;;11.13;;
14169;SDS011;63889;50.596;8.690;2024-03-07T07:00:13;30.25;;;12.43;;
14169;SDS011;63889;50.596;8.690;2024-03-07T07:02:45;32.17;;;12.45;;
14169;SDS011;63889;50.596;8.690;2024-03-07T07:05:11;27.38;;;10.98;;
14169;SDS011;63889;50.596;8.690;2024-03-07T07:07:40;30.05;;;12.18;;
14169;SDS011;63889;50.596;8.690;2024-03-07T07:10:09;34.28;;;12.52;;
14169;SDS011;63889;50.596;8.690;2024-03-07T07:12:41;29.60;;;12.38;;
14169;SDS011;63889;50.596;8.690;2024-03-07T07:15:08;30.52;;;12.85;;
14169;SDS011;63889;50.596;8.690;2024-03-07T07:17:35;33.17;;;13.20;;
14169;SDS011;63889;50.596;8.690;2024-03-07T07:20:01;30.40;;;12.02;;
14169;SDS011;63889;50.596;8.690;2024-03-07T07:22:26;37.58;;;12.20;;
14169;SDS011;63889;50.596;8.690;2024-03-07T07:24:52;31.88;;;12.52;;
14169;SDS011;63889;50.596;8.690;2024-03-07T07:27:17;29.90;;;11.95;;
14169;SDS011;63889;50.596;8.690;2024-03-07T07:29:43;29.90;;;12.02;;
14169;SDS011;63889;50.596;8.690;2024-03-07T07:32:09;35.60;;;13.82;;
14169;SDS011;63889;50.596;8.690;2024-03-07T07:34:37;33.75;;;13.55;;
14169;SDS011;63889;50.596;8.690;2024-03-07T07:37:03;29.27;;;12.10;;
14169;SDS011;63889;50.596;8.690;2024-03-07T07:39:29;32.13;;;12.27;;
14169;SDS011;63889;50.596;8.690;2024-03-07T07:41:55;29.15;;;12.02;;
14169;SDS011;63889;50.596;8.690;2024-03-07T07:44:21;28.98;;;12.95;;
14169;SDS011;63889;50.596;8.690;2024-03-07T07:46:46;30.20;;;12.75;;
14169;SDS011;63889;50.596;8.690;2024-03-07T07:49:14;31.52;;;12.38;;
14169;SDS011;63889;50.596;8.690;2024-03-07T07:51:41;29.63;;;12.48;;
14169;SDS011;63889;50.596;8.690;2024-03-07T07:54:06;31.90;;;12.98;;
14169;SDS011;63889;50.596;8.690;2024-03-07T07:56:34;31.35;;;12.98;;
14169;SDS011;63889;50.596;8.690;2024-03-07T07:59:00;30.92;;;12.07;;
14169;SDS011;63889;50.596;8.690;2024-03-07T08:01:26;31.67;;;11.55;;
14169;SDS011;63889;50.596;8.690;2024-03-07T08:03:52;29.67;;;10.75;;
14169;SDS011;63889;50.596;8.690;2024-03-07T08:06:19;35.90;;;12.25;;
14169;SDS011;63889;50.596;8.690;2024-03-07T08:08:45;39.50;;;12.35;;
14169;SDS011;63889;50.596;8.690;2024-03-07T08:11:10;33.65;;;12.75;;
14169;SDS011;63889;50.596;8.690;2024-03-07T08:13:38;30.35;;;11.90;;
14169;SDS011;63889;50.596;8.690;2024-03-07T08:16:05;32.80;;;14.07;;
14169;SDS011;63889;50.596;8.690;2024-03-07T08:18:31;33.53;;;13.10;;
14169;SDS011;63889;50.596;8.690;2024-03-07T08:20:57;31.90;;;12.55;;
14169;SDS011;63889;50.596;8.690;2024-03-07T08:23:22;30.73;;;12.50;;
14169;SDS011;63889;50.596;8.690;2024-03-07T08:25:51;34.30;;;12.93;;
14169;SDS011;63889;50.596;8.690;2024-03-07T08:28:17;34.42;;;12.63;;
14169;SDS011;63889;50.596;8.690;2024-03-07T08:30:43;31.20;;;12.95;;
14169;SDS011;63889;50.596;8.690;2024-03-07T08:33:09;29.05;;;12.68;;
14169;SDS011;63889;50.596;8.690;2024-03-07T08:35:35;34.40;;;13.00;;
14169;SDS011;63889;50.596;8.690;2024-03-07T08:38:01;37.88;;;13.55;;
14169;SDS011;63889;50.596;8.690;2024-03-07T08:40:27;29.75;;;11.48;;
14169;SDS011;63889;50.596;8.690;2024-03-07T08:42:57;27.83;;;11.80;;
14169;SDS011;63889;50.596;8.690;2024-03-07T08:45:23;30.25;;;12.95;;
14169;SDS011;63889;50.596;8.690;2024-03-07T08:47:51;31.38;;;12.85;;
14169;SDS011;63889;50.596;8.690;2024-03-07T08:50:19;27.27;;;11.57;;
14169;SDS011;63889;50.596;8.690;2024-03-07T08:52:46;29.15;;;12.88;;
14169;SDS011;63889;50.596;8.690;2024-03-07T08:55:16;34.05;;;13.40;;
14169;SDS011;63889;50.596;8.690;2024-03-07T08:57:43;32.10;;;12.00;;
14169;SDS011;63889;50.596;8.690;2024-03-07T09:00:13;28.40;;;12.35;;
14169;SDS011;63889;50.596;8.690;2024-03-07T09:02:47;34.75;;;13.48;;
14169;SDS011;63889;50.596;8.690;2024-03-07T09:05:17;28.52;;;12.20;;
14169;SDS011;63889;50.596;8.690;2024-03-07T09:07:43;33.88;;;13.70;;
14169;SDS011;63889;50.596;8.690;2024-03-07T09:10:10;35.25;;;13.05;;
14169;SDS011;63889;50.596;8.690;2024-03-07T09:12:36;34.05;;;12.13;;
14169;SDS011;63889;50.596;8.690;2024-03-07T09:15:02;34.83;;;13.15;;
14169;SDS011;63889;50.596;8.690;2024-03-07T09:17:30;30.17;;;11.10;;
14169;SDS011;63889;50.596;8.690;2024-03-07T09:19:56;30.00;;;12.82;;
14169;SDS011;63889;50.596;8.690;2024-03-07T09:22:22;36.03;;;12.52;;
14169;SDS011;63889;50.596;8.690;2024-03-07T09:24:47;31.58;;;13.15;;
14169;SDS011;63889;50.596;8.690;2024-03-07T09:27:13;41.33;;;12.57;;
14169;SDS011;63889;50.596;8.690;2024-03-07T09:29:40;36.33;;;13.00;;
14169;SDS011;63889;50.596;8.690;2024-03-07T09:32:05;31.95;;;14.10;;
14169;SDS011;63889;50.596;8.690;2024-03-07T09:34:33;38.28;;;13.40;;
14169;SDS011;63889;50.596;8.690;2024-03-07T09:37:00;33.75;;;13.52;;
14169;SDS011;63889;50.596;8.690;2024-03-07T09:39:26;33.65;;;12.73;;
14169;SDS011;63889;50.596;8.690;2024-03-07T09:41:52;35.17;;;14.13;;
14169;SDS011;63889;50.596;8.690;2024-03-07T09:44:20;35.67;;;14.93;;
14169;SDS011;63889;50.596;8.690;2024-03-07T09:46:49;34.20;;;15.43;;
14169;SDS011;63889;50.596;8.690;2024-03-07T09:49:15;38.08;;;14.23;;
14169;SDS011;63889;50.596;8.690;2024-03-07T09:51:43;38.30;;;13.00;;
14169;SDS011;63889;50.596;8.690;2024-03-07T09:54:10;32.67;;;13.70;;
14169;SDS011;63889;50.596;8.690;2024-03-07T09:56:35;36.25;;;13.18;;
14169;SDS011;63889;50.596;8.690;2024-03-07T09:59:03;32.47;;;12.43;;
14169;SDS011;63889;50.596;8.690;2024-03-07T10:01:30;33.08;;;12.77;;
14169;SDS011;63889;50.596;8.690;2024-03-07T10:04:00;32.85;;;12.35;;
14169;SDS011;63889;50.596;8.690;2024-03-07T10:06:36;28.00;;;11.65;;
14169;SDS011;63889;50.596;8.690;2024-03-07T10:09:09;36.95;;;12.85;;
14169;SDS011;63889;50.596;8.690;2024-03-07T10:11:38;28.92;;;11.85;;
14169;SDS011;63889;50.596;8.690;2024-03-07T10:14:04;34.88;;;12.65;;
14169;SDS011;63889;50.596;8.690;2024-03-07T10:16:30;29.45;;;12.07;;
14169;SDS011;63889;50.596;8.690;2024-03-07T10:18:57;27.90;;;11.65;;
14169;SDS011;63889;50.596;8.690;2024-03-07T10:21:23;32.28;;;12.55;;
14169;SDS011;63889;50.596;8.690;2024-03-07T10:23:49;31.85;;;12.27;;
14169;SDS011;63889;50.596;8.690;2024-03-07T10:26:18;25.63;;;12.07;;
14169;SDS011;63889;50.596;8.690;2024-03-07T10:28:43;32.00;;;12.25;;
14169;SDS011;63889;50.596;8.690;2024-03-07T10:31:09;30.42;;;11.27;;
14169;SDS011;63889;50.596;8.690;2024-03-07T10:33:39;28.50;;;11.13;;
14169;SDS011;63889;50.596;8.690;2024-03-07T10:36:05;26.88;;;11.80;;
14169;SDS011;63889;50.596;8.690;2024-03-07T10:38:35;23.85;;;10.00;;
14169;SDS011;63889;50.596;8.690;2024-03-07T10:41:04;24.23;;;9.82;;
14169;SDS011;63889;50.596;8.690;2024-03-07T10:43:33;23.50;;;10.43;;
14169;SDS011;63889;50.596;8.690;2024-03-07T10:46:03;22.38;;;9.20;;
14169;SDS011;63889;50.596;8.690;2024-03-07T10:48:31;22.85;;;9.77;;
14169;SDS011;63889;50.596;8.690;2024-03-07T11:00:22;20.17;;;8.40;;
14169;SDS011;63889;50.596;8.690;2024-03-07T11:03:01;21.27;;;9.70;;
14169;SDS011;63889;50.596;8.690;2024-03-07T11:05:32;22.38;;;9.23;;
14169;SDS011;63889;50.596;8.690;2024-03-07T11:07:58;27.42;;;9.93;;
14169;SDS011;63889;50.596;8.690;2024-03-07T11:10:28;21.35;;;8.90;;
14169;SDS011;63889;50.596;8.690;2024-03-07T11:12:55;16.23;;;8.45;;
14169;SDS011;63889;50.596;8.690;2024-03-07T11:15:23;21.48;;;8.90;;
14169;SDS011;63889;50.596;8.690;2024-03-07T11:17:52;18.23;;;7.82;;
14169;SDS011;63889;50.596;8.690;2024-03-07T11:20:23;18.95;;;8.00;;
14169;SDS011;63889;50.596;8.690;2024-03-07T11:22:52;16.88;;;7.72;;
14169;SDS011;63889;50.596;8.690;2024-03-07T11:25:21;17.27;;;8.25;;
14169;SDS011;63889;50.596;8.690;2024-03-07T11:27:51;20.02;;;8.80;;
14169;SDS011;63889;50.596;8.690;2024-03-07T11:30:19;18.05;;;7.85;;
14169;SDS011;63889;50.596;8.690;2024-03-07T11:32:46;18.05;;;7.75;;
14169;SDS011;63889;50.596;8.690;2024-03-07T11:35:14;18.15;;;7.18;;
14169;SDS011;63889;50.596;8.690;2024-03-07T11:37:40;13.57;;;6.15;;
14169;SDS011;63889;50.596;8.690;2024-03-07T11:40:13;16.10;;;6.63;;
14169;SDS011;63889;50.596;8.690;2024-03-07T11:43:00;14.82;;;6.30;;
14169;SDS011;63889;50.596;8.690;2024-03-07T11:45:29;16.98;;;7.05;;
14169;SDS011;63889;50.596;8.690;2024-03-07T11:48:03;12.65;;;6.15;;
14169;SDS011;63889;50.596;8.690;2024-03-07T11:50:34;13.00;;;6.03;;
14169;SDS011;63889;50.596;8.690;2024-03-07T11:53:04;16.58;;;6.68;;
14169;SDS011;63889;50.596;8.690;2024-03-07T11:55:31;15.82;;;7.10;;
14169;SDS011;63889;50.596;8.690;2024-03-07T11:58:11;16.42;;;6.78;;
14169;SDS011;63889;50.596;8.690;2024-03-07T12:00:46;15.77;;;7.13;;
14169;SDS011;63889;50.596;8.690;2024-03-07T12:03:13;16.45;;;7.53;;
14169;SDS011;63889;50.596;8.690;2024-03-07T12:05:42;13.10;;;6.15;;
14169;SDS011;63889;50.596;8.690;2024-03-07T12:08:08;13.48;;;5.63;;
14169;SDS011;63889;50.596;8.690;2024-03-07T12:10:39;12.77;;;5.68;;
14169;SDS011;63889;50.596;8.690;2024-03-07T12:13:08;12.88;;;5.57;;
14169;SDS011;63889;50.596;8.690;2024-03-07T12:15:36;9.52;;;5.15;;
14169;SDS011;63889;50.596;8.690;2024-03-07T12:18:03;11.13;;;6.07;;
14169;SDS011;63889;50.596;8.690;2024-03-07T12:20:33;13.63;;;6.07;;
14169;SDS011;63889;50.596;8.690;2024-03-07T12:23:00;13.40;;;5.80;;
14169;SDS011;63889;50.596;8.690;2024-03-07T12:25:27;12.63;;;5.85;;
14169;SDS011;63889;50.596;8.690;2024-03-07T12:28:01;14.80;;;6.43;;
14169;SDS011;63889;50.596;8.690;2024-03-07T12:30:28;14.82;;;6.35;;
14169;SDS011;63889;50.596;8.690;2024-03-07T12:32:58;12.88;;;6.15;;
14169;SDS011;63889;50.596;8.690;2024-03-07T12:35:24;12.90;;;5.97;;
14169;SDS011;63889;50.596;8.690;2024-03-07T12:37:50;12.55;;;6.03;;
14169;SDS011;63889;50.596;8.690;2024-03-07T12:40:19;13.70;;;5.78;;
14169;SDS011;63889;50.596;8.690;2024-03-07T12:42:50;14.40;;;5.75;;
14169;SDS011;63889;50.596;8.690;2024-03-07T12:45:17;11.73;;;5.47;;
14169;SDS011;63889;50.596;8.690;2024-03-07T12:47:51;12.35;;;6.10;;
14169;SDS011;63889;50.596;8.690;2024-03-07T12:50:19;14.68;;;6.70;;
14169;SDS011;63889;50.596;8.690;2024-03-07T12:52:45;12.55;;;6.32;;
14169;SDS011;63889;50.596;8.690;2024-03-07T12:55:14;14.30;;;7.10;;
14169;SDS011;63889;50.596;8.690;2024-03-07T12:57:43;15.45;;;6.50;;
14169;SDS011;63889;50.596;8.690;2024-03-07T13:00:11;17.67;;;7.78;;
14169;SDS011;63889;50.596;8.690;2024-03-07T13:02:47;19.27;;;8.55;;
14169;SDS011;63889;50.596;8.690;2024-03-07T13:05:13;18.77;;;7.53;;
14169;SDS011;63889;50.596;8.690;2024-03-07T13:07:44;23.02;;;7.75;;
14169;SDS011;63889;50.596;8.690;2024-03-07T13:10:12;21.77;;;8.63;;
14169;SDS011;63889;50.596;8.690;2024-03-07T13:12:40;21.08;;;8.45;;
14169;SDS011;63889;50.596;8.690;2024-03-07T13:15:10;21.05;;;8.77;;
14169;SDS011;63889;50.596;8.690;2024-03-07T13:17:36;18.02;;;7.82;;
14169;SDS011;63889;50.596;8.690;2024-03-07T13:20:02;21.10;;;8.32;;
14169;SDS011;63889;50.596;8.690;2024-03-07T13:22:36;19.38;;;7.93;;
14169;SDS011;63889;50.596;8.690;2024-03-07T13:25:12;19.15;;;8.05;;
14169;SDS011;63889;50.596;8.690;2024-03-07T13:27:42;20.73;;;8.18;;
14169;SDS011;63889;50.596;8.690;2024-03-07T13:30:20;22.83;;;8.13;;
14169;SDS011;63889;50.596;8.690;2024-03-07T13:32:52;20.00;;;8.32;;
14169;SDS011;63889;50.596;8.690;2024-03-07T13:35:19;22.23;;;8.70;;
14169;SDS011;63889;50.596;8.690;2024-03-07T13:37:45;21.00;;;8.80;;
14169;SDS011;63889;50.596;8.690;2024-03-07T13:40:15;22.83;;;8.88;;
14169;SDS011;63889;50.596;8.690;2024-03-07T13:45:28;20.13;;;9.73;;
14169;SDS011;63889;50.596;8.690;2024-03-07T13:48:14;24.63;;;9.25;;
14169;SDS011;63889;50.596;8.690;2024-03-07T13:50:42;17.27;;;7.85;;
14169;SDS011;63889;50.596;8.690;2024-03-07T13:53:12;18.83;;;8.30;;
14169;SDS011;63889;50.596;8.690;2024-03-07T14:29:01;25.60;;;10.45;;
14169;SDS011;63889;50.596;8.690;2024-03-07T14:31:42;26.02;;;11.05;;
14169;SDS011;63889;50.596;8.690;2024-03-07T14:36:57;22.17;;;10.45;;
14169;SDS011;63889;50.596;8.690;2024-03-07T14:39:43;20.20;;;10.35;;
14169;SDS011;63889;50.596;8.690;2024-03-07T14:42:12;21.42;;;10.73;;
14169;SDS011;63889;50.596;8.690;2024-03-07T14:44:42;24.48;;;10.88;;
14169;SDS011;63889;50.596;8.690;2024-03-07T14:47:09;20.52;;;10.23;;
14169;SDS011;63889;50.596;8.690;2024-03-07T14:49:36;28.42;;;12.00;;
14169;SDS011;63889;50.596;8.690;2024-03-07T14:52:03;21.52;;;10.98;;
14169;SDS011;63889;50.596;8.690;2024-03-07T14:54:35;21.95;;;11.50;;
14169;SDS011;63889;50.596;8.690;2024-03-07T14:57:05;19.45;;;9.95;;
14169;SDS011;63889;50.596;8.690;2024-03-07T14:59:32;25.38;;;10.75;;
14169;SDS011;63889;50.596;8.690;2024-03-07T15:01:58;19.65;;;10.13;;
14169;SDS011;63889;50.596;8.690;2024-03-07T15:04:25;23.40;;;10.57;;
14169;SDS011;63889;50.596;8.690;2024-03-07T15:06:55;23.90;;;10.13;;
14169;SDS011;63889;50.596;8.690;2024-03-07T15:09:22;23.40;;;10.77;;
14169;SDS011;63889;50.596;8.690;2024-03-07T15:11:48;20.25;;;9.27;;
14169;SDS011;63889;50.596;8.690;2024-03-07T15:14:14;21.40;;;9.77;;
14169;SDS011;63889;50.596;8.690;2024-03-07T15:16:40;18.42;;;8.57;;